Flight Track Log - Related Links

Times and Time Zones

All times are in EDT time to prevent confusion due to time zone crossing. See the SWA1364 flight status page for this flight to view local times or setup timezone preferences in your user account.

Time Position Orientation Groundspeed Altitude Reporting Facility
EDT Latitude Longitude Course Direction KTS MPH feet Rate Location/Type
10:46PM 39.1833 -76.7167 207° Southwest 172 198 1,700  Level Potomac TRACON
10:47PM 39.1333 -76.7500 207° Southwest 249 287 4,200 2,500 Climbing Potomac TRACON
10:48PM 39.0833 -76.7000 142° Southeast 271 312 6,700 1,950 Climbing Potomac TRACON
10:50PM 39.1122 -76.4717 81° East 290 334 10,700 2,020 Climbing Washington Center
10:51PM 39.1297 -76.3542 79° East 304 350 13,400 2,168 Climbing Washington Center
10:52PM 39.1492 -76.2339 78° East 326 375 15,000 1,636 Climbing Washington Center
10:53PM 39.1622 -76.1136 82° East 344 396 16,700 1,250 Climbing Washington Center
10:54PM 39.2147 -76.0042 58° Northeast 349 402 17,500 2,017 Climbing Washington Center
10:55PM 39.2778 -75.9053 51° Northeast 354 407 20,700 3,000 Climbing Washington Center
10:56PM 39.3361 -75.8064 53° Northeast 354 407 23,500 2,529 Climbing Washington Center
10:57PM 39.3989 -75.7044 51° Northeast 354 407 25,800 2,033 Climbing Washington Center
10:58PM 39.4594 -75.6050 52° Northeast 354 407 27,600 1,140 Climbing Washington Center
10:59PM 39.5261 -75.4947 52° Northeast 361 415 28,100 694 Climbing Washington Center
11:00PM 39.5800 -75.4003 53° Northeast 381 438 29,000 1,350 Climbing Washington Center
11:01PM 39.6694 -75.2600 50° Northeast 404 465 30,800 1,613 Climbing Washington Center
11:02PM 39.7481 -75.1489 47° Northeast 416 479 32,200 1,680 Climbing Washington Center
11:02PM 39.7689 -75.1111 54° Northeast 424 488 32,900 632 Climbing New York Center
11:03PM 39.8458 -75.0050 47° Northeast 419 482 33,000 50 Climbing New York Center
11:04PM 39.9336 -74.8803 47° Northeast 414 476 33,000  Level New York Center
11:05PM 40.0036 -74.7814 47° Northeast 414 476 33,000 -843 Level New York Center
11:06PM 40.0869 -74.6614 48° Northeast 409 471 31,300 -1,008 Descending New York Center
11:07PM 40.1589 -74.5597 47° Northeast 409 471 31,000 -151 Descending New York Center
11:08PM 40.2419 -74.4444 47° Northeast 422 486 31,000  Level New York Center
11:09PM 40.3225 -74.3289 48° Northeast 422 486 31,000  Level New York Center
11:10PM 40.4050 -74.2161 46° Northeast 422 486 31,000 -390 Level New York Center
11:12PM 40.5075 -74.0203 55° Northeast 432 497 30,000 -506 Descending Boston Center
11:13PM 40.5219 -73.8625 83° East 420 483 29,700 -650 Descending Boston Center
11:14PM 40.5656 -73.7131 69° East 425 489 28,700 -950 Descending Boston Center
11:15PM 40.6006 -73.5553 74° East 437 503 27,800 -850 Descending Boston Center
11:16PM 40.6375 -73.4056 72° East 437 503 27,000 -400 Descending Boston Center
11:17PM 40.6781 -73.2639 69° East 425 489 27,000  Level Boston Center
11:18PM 40.7497 -73.1306 55° Northeast 404 465 27,000  Level Boston Center
11:19PM 40.8339 -72.9942 51° Northeast 398 458 27,000  Level Boston Center
11:20PM 40.9033 -72.8767 52° Northeast 398 458 27,000 -100 Level Boston Center
11:21PM 40.9725 -72.7536 53° Northeast 398 458 26,800 -550 Descending Boston Center
11:22PM 41.0394 -72.6356 53° Northeast 404 465 25,900 -1,650 Descending Boston Center
11:23PM 41.1125 -72.5117 52° Northeast 415 478 23,500 -2,831 Descending Boston Center
11:23PM 41.1500 -72.4456 53° Northeast 428 493 21,700 -3,100 Descending Boston Center
11:24PM 41.1833 -72.3878 53° Northeast 415 478 20,400 -2,833 Descending Boston Center
11:25PM 41.2311 -72.3050 52° Northeast 420 483 18,300 -2,900 Descending Boston Center
11:25PM 41.2542 -72.2606 55° Northeast 415 478 17,500 -2,955 Descending Boston Center
11:26PM 41.3100 -72.1692 51° Northeast 409 471 15,000 -2,752 Descending Boston Center
11:27PM 41.3764 -72.0528 53° Northeast 387 445 12,500 -2,182 Descending Boston Center
11:28PM 41.4364 -71.9444 54° Northeast 364 419 10,600 -1,289 Descending Boston Center
11:29PM 41.4903 -71.8525 52° Northeast 315 362 9,900 -870 Descending Boston Center
11:30PM 41.5397 -71.7578 55° Northeast 289 333 8,700 -1,200 Descending Boston Center
11:31PM 41.5769 -71.6964 51° Northeast 275 316 7,600 -1,300 Descending Boston Center
11:31PM 41.5892 -71.6742 54° Northeast 271 312 7,400 -1,475 Descending Boston Center
11:32PM 41.6242 -71.6264 46° Northeast 261 300 6,100 -1,358 Descending Boston Center
11:33PM 41.6883 -71.5644 36° Northeast 257 296 5,000 -1,091 Descending Boston Center
11:34PM 41.7464 -71.5192 30° Northeast 248 285 3,900 -1,230 Descending Boston Center
11:35PM 41.8022 -71.4653 36° Northeast 246 283 2,500 -843 Descending Boston Center
11:36PM 41.8244 -71.3981 66° East 236 272 2,200 -496 Descending Boston Center
11:37PM 41.7764 -71.3794 164° South 201 231 1,500 -898 Descending Boston Center
11:38PM 41.7372 -71.4164 215° Southwest 144 166 300 -940 Descending Boston Center
11:38PM 41.7311 -71.4219 214° Southwest 124 143 200 -353 Descending Boston Center

Login

Don't have an account? Register now (free) for customized features, flight alerts, and more!